sensor_id;sensor_type;location;lat;lon;timestamp;P1;durP1;ratioP1;P2;durP2;ratioP2
71152;SDS011;58822;51.438;5.436;2022-07-12T00:00:34;6.03;;;2.92;;
71152;SDS011;58822;51.438;5.436;2022-07-12T00:02:59;6.30;;;3.00;;
71152;SDS011;58822;51.438;5.436;2022-07-12T00:05:24;5.70;;;3.10;;
71152;SDS011;58822;51.438;5.436;2022-07-12T00:07:50;5.63;;;2.83;;
71152;SDS011;58822;51.438;5.436;2022-07-12T00:10:16;5.32;;;2.90;;
71152;SDS011;58822;51.438;5.436;2022-07-12T00:12:41;7.68;;;2.85;;
71152;SDS011;58822;51.438;5.436;2022-07-12T00:15:07;8.85;;;2.78;;
71152;SDS011;58822;51.438;5.436;2022-07-12T00:17:33;6.00;;;3.17;;
71152;SDS011;58822;51.438;5.436;2022-07-12T00:19:58;6.32;;;3.22;;
71152;SDS011;58822;51.438;5.436;2022-07-12T00:22:24;5.00;;;2.78;;
71152;SDS011;58822;51.438;5.436;2022-07-12T00:24:55;5.75;;;3.00;;
71152;SDS011;58822;51.438;5.436;2022-07-12T00:27:21;5.45;;;2.92;;
71152;SDS011;58822;51.438;5.436;2022-07-12T00:29:46;6.03;;;3.10;;
71152;SDS011;58822;51.438;5.436;2022-07-12T00:32:15;5.78;;;3.17;;
71152;SDS011;58822;51.438;5.436;2022-07-12T00:34:41;3.80;;;2.75;;
71152;SDS011;58822;51.438;5.436;2022-07-12T00:37:07;5.20;;;3.22;;
71152;SDS011;58822;51.438;5.436;2022-07-12T00:39:32;5.32;;;3.45;;
71152;SDS011;58822;51.438;5.436;2022-07-12T00:41:58;6.35;;;3.60;;
71152;SDS011;58822;51.438;5.436;2022-07-12T00:44:23;4.47;;;3.15;;
71152;SDS011;58822;51.438;5.436;2022-07-12T00:46:51;5.05;;;3.38;;
71152;SDS011;58822;51.438;5.436;2022-07-12T00:49:17;7.05;;;3.35;;
71152;SDS011;58822;51.438;5.436;2022-07-12T00:51:43;5.13;;;3.30;;
71152;SDS011;58822;51.438;5.436;2022-07-12T00:54:09;8.40;;;3.72;;
71152;SDS011;58822;51.438;5.436;2022-07-12T00:56:36;13.35;;;3.72;;
71152;SDS011;58822;51.438;5.436;2022-07-12T00:59:04;8.55;;;3.55;;
71152;SDS011;58822;51.438;5.436;2022-07-12T01:03:55;5.07;;;3.35;;
71152;SDS011;58822;51.438;5.436;2022-07-12T01:06:24;7.30;;;4.00;;
71152;SDS011;58822;51.438;5.436;2022-07-12T01:08:50;5.82;;;3.72;;
71152;SDS011;58822;51.438;5.436;2022-07-12T01:11:16;7.80;;;3.60;;
71152;SDS011;58822;51.438;5.436;2022-07-12T01:13:43;7.47;;;4.32;;
71152;SDS011;58822;51.438;5.436;2022-07-12T01:16:09;7.25;;;3.70;;
71152;SDS011;58822;51.438;5.436;2022-07-12T01:18:37;6.22;;;3.63;;
71152;SDS011;58822;51.438;5.436;2022-07-12T01:21:04;6.90;;;3.80;;
71152;SDS011;58822;51.438;5.436;2022-07-12T01:23:33;9.48;;;3.75;;
71152;SDS011;58822;51.438;5.436;2022-07-12T01:25:59;6.68;;;3.80;;
71152;SDS011;58822;51.438;5.436;2022-07-12T01:28:25;7.93;;;3.33;;
71152;SDS011;58822;51.438;5.436;2022-07-12T01:30:58;8.38;;;3.47;;
71152;SDS011;58822;51.438;5.436;2022-07-12T01:33:30;10.45;;;3.20;;
71152;SDS011;58822;51.438;5.436;2022-07-12T01:35:56;5.50;;;3.22;;
71152;SDS011;58822;51.438;5.436;2022-07-12T01:38:22;5.93;;;3.08;;
71152;SDS011;58822;51.438;5.436;2022-07-12T01:40:48;4.38;;;2.70;;
71152;SDS011;58822;51.438;5.436;2022-07-12T01:43:14;8.32;;;2.78;;
71152;SDS011;58822;51.438;5.436;2022-07-12T01:45:39;4.60;;;2.60;;
71152;SDS011;58822;51.438;5.436;2022-07-12T01:48:09;8.38;;;3.00;;
71152;SDS011;58822;51.438;5.436;2022-07-12T01:53:00;6.43;;;2.65;;
71152;SDS011;58822;51.438;5.436;2022-07-12T01:55:26;6.55;;;2.85;;
71152;SDS011;58822;51.438;5.436;2022-07-12T01:57:52;4.38;;;2.72;;
71152;SDS011;58822;51.438;5.436;2022-07-12T02:00:18;4.38;;;2.97;;
71152;SDS011;58822;51.438;5.436;2022-07-12T02:02:47;5.30;;;2.80;;
71152;SDS011;58822;51.438;5.436;2022-07-12T02:05:13;8.13;;;3.05;;
71152;SDS011;58822;51.438;5.436;2022-07-12T02:07:39;4.85;;;3.10;;
71152;SDS011;58822;51.438;5.436;2022-07-12T02:10:05;12.05;;;3.50;;
71152;SDS011;58822;51.438;5.436;2022-07-12T02:12:32;4.13;;;2.78;;
71152;SDS011;58822;51.438;5.436;2022-07-12T02:14:58;7.15;;;3.10;;
71152;SDS011;58822;51.438;5.436;2022-07-12T02:17:25;5.50;;;3.15;;
71152;SDS011;58822;51.438;5.436;2022-07-12T02:19:51;6.60;;;3.40;;
71152;SDS011;58822;51.438;5.436;2022-07-12T02:22:16;6.00;;;3.55;;
71152;SDS011;58822;51.438;5.436;2022-07-12T02:24:42;5.28;;;3.42;;
71152;SDS011;58822;51.438;5.436;2022-07-12T02:27:07;10.45;;;3.70;;
71152;SDS011;58822;51.438;5.436;2022-07-12T02:29:33;6.88;;;3.35;;
71152;SDS011;58822;51.438;5.436;2022-07-12T02:32:00;5.40;;;3.33;;
71152;SDS011;58822;51.438;5.436;2022-07-12T02:34:25;10.50;;;3.70;;
71152;SDS011;58822;51.438;5.436;2022-07-12T02:36:51;5.80;;;3.83;;
71152;SDS011;58822;51.438;5.436;2022-07-12T02:39:16;8.02;;;4.10;;
71152;SDS011;58822;51.438;5.436;2022-07-12T02:41:42;10.48;;;4.05;;
71152;SDS011;58822;51.438;5.436;2022-07-12T02:44:07;7.32;;;4.18;;
71152;SDS011;58822;51.438;5.436;2022-07-12T02:46:36;7.20;;;4.00;;
71152;SDS011;58822;51.438;5.436;2022-07-12T02:51:27;7.45;;;4.18;;
71152;SDS011;58822;51.438;5.436;2022-07-12T02:53:56;6.20;;;4.22;;
71152;SDS011;58822;51.438;5.436;2022-07-12T02:56:21;8.05;;;4.10;;
71152;SDS011;58822;51.438;5.436;2022-07-12T02:58:47;9.63;;;4.35;;
71152;SDS011;58822;51.438;5.436;2022-07-12T03:01:12;7.28;;;4.30;;
71152;SDS011;58822;51.438;5.436;2022-07-12T03:03:39;13.75;;;4.57;;
71152;SDS011;58822;51.438;5.436;2022-07-12T03:06:04;8.88;;;4.70;;
71152;SDS011;58822;51.438;5.436;2022-07-12T03:08:30;9.52;;;4.63;;
71152;SDS011;58822;51.438;5.436;2022-07-12T03:10:56;8.98;;;4.70;;
71152;SDS011;58822;51.438;5.436;2022-07-12T03:13:22;10.23;;;5.13;;
71152;SDS011;58822;51.438;5.436;2022-07-12T03:15:47;8.52;;;4.65;;
71152;SDS011;58822;51.438;5.436;2022-07-12T03:18:14;9.55;;;5.00;;
71152;SDS011;58822;51.438;5.436;2022-07-12T03:20:40;10.15;;;4.95;;
71152;SDS011;58822;51.438;5.436;2022-07-12T03:23:06;8.65;;;4.97;;
71152;SDS011;58822;51.438;5.436;2022-07-12T03:25:31;8.02;;;4.97;;
71152;SDS011;58822;51.438;5.436;2022-07-12T03:27:56;7.15;;;4.68;;
71152;SDS011;58822;51.438;5.436;2022-07-12T03:30:22;7.00;;;4.65;;
71152;SDS011;58822;51.438;5.436;2022-07-12T03:32:47;10.20;;;4.88;;
71152;SDS011;58822;51.438;5.436;2022-07-12T03:35:14;7.25;;;5.00;;
71152;SDS011;58822;51.438;5.436;2022-07-12T03:37:49;8.35;;;5.22;;
71152;SDS011;58822;51.438;5.436;2022-07-12T03:40:16;6.72;;;4.82;;
71152;SDS011;58822;51.438;5.436;2022-07-12T03:42:43;8.15;;;4.82;;
71152;SDS011;58822;51.438;5.436;2022-07-12T03:45:10;9.05;;;5.45;;
71152;SDS011;58822;51.438;5.436;2022-07-12T03:47:36;6.55;;;5.00;;
71152;SDS011;58822;51.438;5.436;2022-07-12T03:50:06;7.78;;;5.40;;
71152;SDS011;58822;51.438;5.436;2022-07-12T03:52:33;11.07;;;5.05;;
71152;SDS011;58822;51.438;5.436;2022-07-12T03:55:00;6.28;;;4.90;;
71152;SDS011;58822;51.438;5.436;2022-07-12T03:57:29;8.68;;;5.35;;
71152;SDS011;58822;51.438;5.436;2022-07-12T03:59:54;7.32;;;5.13;;
71152;SDS011;58822;51.438;5.436;2022-07-12T04:02:21;8.55;;;5.20;;
71152;SDS011;58822;51.438;5.436;2022-07-12T04:04:46;10.38;;;5.20;;
71152;SDS011;58822;51.438;5.436;2022-07-12T04:07:12;9.40;;;5.60;;
71152;SDS011;58822;51.438;5.436;2022-07-12T04:09:37;7.22;;;5.25;;
71152;SDS011;58822;51.438;5.436;2022-07-12T04:12:03;11.27;;;5.25;;
71152;SDS011;58822;51.438;5.436;2022-07-12T04:14:29;7.30;;;5.40;;
71152;SDS011;58822;51.438;5.436;2022-07-12T04:16:54;8.82;;;5.35;;
71152;SDS011;58822;51.438;5.436;2022-07-12T04:19:20;7.43;;;5.72;;
71152;SDS011;58822;51.438;5.436;2022-07-12T04:21:48;8.45;;;6.10;;
71152;SDS011;58822;51.438;5.436;2022-07-12T04:24:14;9.25;;;5.97;;
71152;SDS011;58822;51.438;5.436;2022-07-12T04:26:39;9.38;;;5.82;;
71152;SDS011;58822;51.438;5.436;2022-07-12T04:29:05;9.65;;;5.85;;
71152;SDS011;58822;51.438;5.436;2022-07-12T04:31:31;9.80;;;5.90;;
71152;SDS011;58822;51.438;5.436;2022-07-12T04:33:56;9.60;;;5.78;;
71152;SDS011;58822;51.438;5.436;2022-07-12T04:36:22;10.48;;;6.22;;
71152;SDS011;58822;51.438;5.436;2022-07-12T04:38:51;9.13;;;6.15;;
71152;SDS011;58822;51.438;5.436;2022-07-12T04:41:23;14.85;;;6.45;;
71152;SDS011;58822;51.438;5.436;2022-07-12T04:43:52;12.90;;;6.85;;
71152;SDS011;58822;51.438;5.436;2022-07-12T04:46:17;12.32;;;7.85;;
71152;SDS011;58822;51.438;5.436;2022-07-12T04:48:43;13.35;;;8.10;;
71152;SDS011;58822;51.438;5.436;2022-07-12T04:51:08;13.77;;;8.07;;
71152;SDS011;58822;51.438;5.436;2022-07-12T04:53:33;13.73;;;8.18;;
71152;SDS011;58822;51.438;5.436;2022-07-12T04:55:59;14.25;;;8.85;;
71152;SDS011;58822;51.438;5.436;2022-07-12T04:58:24;20.77;;;8.77;;
71152;SDS011;58822;51.438;5.436;2022-07-12T05:00:50;14.75;;;8.70;;
71152;SDS011;58822;51.438;5.436;2022-07-12T05:03:16;14.13;;;8.32;;
71152;SDS011;58822;51.438;5.436;2022-07-12T05:05:42;20.25;;;8.73;;
71152;SDS011;58822;51.438;5.436;2022-07-12T05:08:10;16.00;;;8.60;;
71152;SDS011;58822;51.438;5.436;2022-07-12T05:10:51;16.23;;;8.90;;
71152;SDS011;58822;51.438;5.436;2022-07-12T05:13:21;12.23;;;8.25;;
71152;SDS011;58822;51.438;5.436;2022-07-12T05:15:56;14.48;;;9.02;;
71152;SDS011;58822;51.438;5.436;2022-07-12T05:18:36;17.50;;;10.88;;
71152;SDS011;58822;51.438;5.436;2022-07-12T05:21:02;18.17;;;9.65;;
71152;SDS011;58822;51.438;5.436;2022-07-12T05:23:28;14.35;;;10.05;;
71152;SDS011;58822;51.438;5.436;2022-07-12T05:25:59;18.67;;;10.27;;
71152;SDS011;58822;51.438;5.436;2022-07-12T05:28:24;14.50;;;10.02;;
71152;SDS011;58822;51.438;5.436;2022-07-12T05:30:50;17.83;;;10.27;;
71152;SDS011;58822;51.438;5.436;2022-07-12T05:33:16;14.02;;;9.93;;
71152;SDS011;58822;51.438;5.436;2022-07-12T05:35:42;15.55;;;10.32;;
71152;SDS011;58822;51.438;5.436;2022-07-12T05:38:08;17.10;;;10.02;;
71152;SDS011;58822;51.438;5.436;2022-07-12T05:40:33;14.55;;;10.07;;
71152;SDS011;58822;51.438;5.436;2022-07-12T05:43:01;19.25;;;10.48;;
71152;SDS011;58822;51.438;5.436;2022-07-12T05:45:27;17.85;;;10.73;;
71152;SDS011;58822;51.438;5.436;2022-07-12T05:50:28;14.70;;;9.50;;
71152;SDS011;58822;51.438;5.436;2022-07-12T05:52:54;14.80;;;10.07;;
71152;SDS011;58822;51.438;5.436;2022-07-12T05:57:58;16.13;;;9.75;;
71152;SDS011;58822;51.438;5.436;2022-07-12T06:00:32;15.43;;;9.32;;
71152;SDS011;58822;51.438;5.436;2022-07-12T06:03:20;13.18;;;8.80;;
71152;SDS011;58822;51.438;5.436;2022-07-12T06:05:52;14.15;;;8.57;;
71152;SDS011;58822;51.438;5.436;2022-07-12T06:08:18;22.83;;;10.43;;
71152;SDS011;58822;51.438;5.436;2022-07-12T06:10:46;16.95;;;9.55;;
71152;SDS011;58822;51.438;5.436;2022-07-12T06:13:21;16.02;;;9.98;;
71152;SDS011;58822;51.438;5.436;2022-07-12T06:15:46;21.85;;;9.23;;
71152;SDS011;58822;51.438;5.436;2022-07-12T06:18:12;15.25;;;9.25;;
71152;SDS011;58822;51.438;5.436;2022-07-12T06:20:45;18.50;;;8.75;;
71152;SDS011;58822;51.438;5.436;2022-07-12T06:23:17;15.50;;;8.48;;
71152;SDS011;58822;51.438;5.436;2022-07-12T06:25:45;14.43;;;8.40;;
71152;SDS011;58822;51.438;5.436;2022-07-12T06:30:39;12.80;;;8.75;;
71152;SDS011;58822;51.438;5.436;2022-07-12T06:33:10;18.45;;;8.40;;
71152;SDS011;58822;51.438;5.436;2022-07-12T06:35:38;16.35;;;7.28;;
71152;SDS011;58822;51.438;5.436;2022-07-12T06:38:10;11.00;;;7.60;;
71152;SDS011;58822;51.438;5.436;2022-07-12T06:40:39;8.82;;;6.80;;
71152;SDS011;58822;51.438;5.436;2022-07-12T06:43:09;9.07;;;6.75;;
71152;SDS011;58822;51.438;5.436;2022-07-12T06:45:45;8.75;;;6.15;;
71152;SDS011;58822;51.438;5.436;2022-07-12T06:48:21;9.88;;;6.55;;
71152;SDS011;58822;51.438;5.436;2022-07-12T06:50:58;9.00;;;6.63;;
71152;SDS011;58822;51.438;5.436;2022-07-12T06:53:34;11.23;;;6.30;;
71152;SDS011;58822;51.438;5.436;2022-07-12T06:56:00;13.70;;;6.82;;
71152;SDS011;58822;51.438;5.436;2022-07-12T06:58:26;10.85;;;6.70;;
71152;SDS011;58822;51.438;5.436;2022-07-12T07:00:54;8.82;;;5.82;;
71152;SDS011;58822;51.438;5.436;2022-07-12T07:03:22;8.70;;;5.80;;
71152;SDS011;58822;51.438;5.436;2022-07-12T07:06:01;13.65;;;6.35;;
71152;SDS011;58822;51.438;5.436;2022-07-12T07:08:27;11.98;;;5.93;;
71152;SDS011;58822;51.438;5.436;2022-07-12T07:11:13;10.55;;;6.75;;
71152;SDS011;58822;51.438;5.436;2022-07-12T07:13:39;13.23;;;6.30;;
71152;SDS011;58822;51.438;5.436;2022-07-12T07:16:05;8.50;;;5.55;;
71152;SDS011;58822;51.438;5.436;2022-07-12T07:18:32;20.13;;;5.78;;
71152;SDS011;58822;51.438;5.436;2022-07-12T07:21:01;6.72;;;5.03;;
71152;SDS011;58822;51.438;5.436;2022-07-12T07:23:33;14.48;;;5.15;;
71152;SDS011;58822;51.438;5.436;2022-07-12T07:25:58;9.73;;;4.80;;
71152;SDS011;58822;51.438;5.436;2022-07-12T07:28:24;10.23;;;4.38;;
71152;SDS011;58822;51.438;5.436;2022-07-12T07:30:58;7.63;;;4.43;;
71152;SDS011;58822;51.438;5.436;2022-07-12T07:33:26;6.18;;;4.20;;
71152;SDS011;58822;51.438;5.436;2022-07-12T07:36:00;9.25;;;4.82;;
71152;SDS011;58822;51.438;5.436;2022-07-12T07:38:25;10.30;;;4.60;;
71152;SDS011;58822;51.438;5.436;2022-07-12T07:40:57;10.52;;;4.32;;
71152;SDS011;58822;51.438;5.436;2022-07-12T07:43:28;5.43;;;3.33;;
71152;SDS011;58822;51.438;5.436;2022-07-12T07:45:56;11.13;;;3.40;;
71152;SDS011;58822;51.438;5.436;2022-07-12T07:48:22;9.18;;;3.97;;
71152;SDS011;58822;51.438;5.436;2022-07-12T07:50:53;8.95;;;3.70;;
71152;SDS011;58822;51.438;5.436;2022-07-12T07:53:20;5.53;;;3.72;;
71152;SDS011;58822;51.438;5.436;2022-07-12T07:55:46;6.35;;;3.50;;
71152;SDS011;58822;51.438;5.436;2022-07-12T07:58:15;15.20;;;5.60;;
71152;SDS011;58822;51.438;5.436;2022-07-12T08:00:41;9.15;;;4.70;;
71152;SDS011;58822;51.438;5.436;2022-07-12T08:03:06;5.93;;;3.65;;
71152;SDS011;58822;51.438;5.436;2022-07-12T08:05:35;11.00;;;3.65;;
71152;SDS011;58822;51.438;5.436;2022-07-12T08:08:01;5.85;;;3.60;;
71152;SDS011;58822;51.438;5.436;2022-07-12T08:10:26;5.30;;;3.25;;
71152;SDS011;58822;51.438;5.436;2022-07-12T08:12:52;4.57;;;3.17;;
71152;SDS011;58822;51.438;5.436;2022-07-12T08:15:18;9.85;;;3.67;;
71152;SDS011;58822;51.438;5.436;2022-07-12T08:17:43;8.23;;;3.25;;
71152;SDS011;58822;51.438;5.436;2022-07-12T08:20:09;5.55;;;2.97;;
71152;SDS011;58822;51.438;5.436;2022-07-12T08:22:35;7.35;;;3.00;;
71152;SDS011;58822;51.438;5.436;2022-07-12T08:25:08;7.10;;;3.28;;
71152;SDS011;58822;51.438;5.436;2022-07-12T08:27:35;5.60;;;2.92;;
71152;SDS011;58822;51.438;5.436;2022-07-12T08:30:03;8.50;;;3.15;;
71152;SDS011;58822;51.438;5.436;2022-07-12T08:32:29;5.13;;;3.30;;
71152;SDS011;58822;51.438;5.436;2022-07-12T08:34:55;6.35;;;3.50;;
71152;SDS011;58822;51.438;5.436;2022-07-12T08:37:21;8.65;;;3.50;;
71152;SDS011;58822;51.438;5.436;2022-07-12T08:39:47;6.20;;;3.30;;
71152;SDS011;58822;51.438;5.436;2022-07-12T08:42:14;5.15;;;3.28;;
71152;SDS011;58822;51.438;5.436;2022-07-12T08:44:41;5.93;;;3.13;;
71152;SDS011;58822;51.438;5.436;2022-07-12T08:47:08;8.18;;;3.50;;
71152;SDS011;58822;51.438;5.436;2022-07-12T08:49:36;4.82;;;3.10;;
71152;SDS011;58822;51.438;5.436;2022-07-12T08:52:39;7.65;;;3.60;;
71152;SDS011;58822;51.438;5.436;2022-07-12T08:54:59;11.32;;;3.50;;
71152;SDS011;58822;51.438;5.436;2022-07-12T08:57:41;11.90;;;3.45;;
71152;SDS011;58822;51.438;5.436;2022-07-12T09:00:23;5.13;;;3.20;;
71152;SDS011;58822;51.438;5.436;2022-07-12T09:02:54;5.90;;;3.72;;
71152;SDS011;58822;51.438;5.436;2022-07-12T09:06:06;6.82;;;3.78;;
71152;SDS011;58822;51.438;5.436;2022-07-12T09:08:28;5.70;;;3.60;;
71152;SDS011;58822;51.438;5.436;2022-07-12T09:11:00;5.88;;;3.30;;
71152;SDS011;58822;51.438;5.436;2022-07-12T09:16:30;8.45;;;3.28;;
71152;SDS011;58822;51.438;5.436;2022-07-12T09:19:11;5.82;;;3.38;;
71152;SDS011;58822;51.438;5.436;2022-07-12T09:21:52;9.00;;;4.20;;
71152;SDS011;58822;51.438;5.436;2022-07-12T09:24:19;7.72;;;3.67;;
71152;SDS011;58822;51.438;5.436;2022-07-12T09:27:02;7.40;;;3.45;;
71152;SDS011;58822;51.438;5.436;2022-07-12T09:29:32;6.45;;;3.75;;
71152;SDS011;58822;51.438;5.436;2022-07-12T09:32:10;9.25;;;3.15;;
71152;SDS011;58822;51.438;5.436;2022-07-12T09:34:58;4.40;;;2.80;;
71152;SDS011;58822;51.438;5.436;2022-07-12T09:37:48;7.97;;;3.63;;
71152;SDS011;58822;51.438;5.436;2022-07-12T09:40:14;12.00;;;3.78;;
71152;SDS011;58822;51.438;5.436;2022-07-12T09:42:40;6.97;;;3.97;;
71152;SDS011;58822;51.438;5.436;2022-07-12T09:45:09;4.82;;;3.75;;
71152;SDS011;58822;51.438;5.436;2022-07-12T09:47:38;8.80;;;4.22;;
71152;SDS011;58822;51.438;5.436;2022-07-12T09:50:08;11.40;;;3.60;;
71152;SDS011;58822;51.438;5.436;2022-07-12T09:52:36;8.10;;;3.83;;
71152;SDS011;58822;51.438;5.436;2022-07-12T09:55:04;5.65;;;3.53;;
71152;SDS011;58822;51.438;5.436;2022-07-12T09:57:32;7.38;;;3.83;;
71152;SDS011;58822;51.438;5.436;2022-07-12T09:59:59;7.60;;;4.18;;
71152;SDS011;58822;51.438;5.436;2022-07-12T10:02:26;5.65;;;4.05;;
71152;SDS011;58822;51.438;5.436;2022-07-12T10:04:53;8.43;;;4.22;;
71152;SDS011;58822;51.438;5.436;2022-07-12T10:07:21;12.55;;;4.47;;
71152;SDS011;58822;51.438;5.436;2022-07-12T10:09:48;7.07;;;3.63;;
71152;SDS011;58822;51.438;5.436;2022-07-12T10:12:20;7.82;;;3.47;;
71152;SDS011;58822;51.438;5.436;2022-07-12T10:14:48;8.43;;;3.20;;
71152;SDS011;58822;51.438;5.436;2022-07-12T10:17:39;5.35;;;3.10;;
71152;SDS011;58822;51.438;5.436;2022-07-12T10:20:13;6.90;;;3.00;;
71152;SDS011;58822;51.438;5.436;2022-07-12T10:22:40;6.72;;;2.80;;
71152;SDS011;58822;51.438;5.436;2022-07-12T10:27:52;6.95;;;2.35;;
71152;SDS011;58822;51.438;5.436;2022-07-12T10:30:19;11.40;;;3.10;;
71152;SDS011;58822;51.438;5.436;2022-07-12T10:32:47;7.05;;;2.90;;
71152;SDS011;58822;51.438;5.436;2022-07-12T10:40:37;4.45;;;2.85;;
71152;SDS011;58822;51.438;5.436;2022-07-12T10:45:37;6.45;;;4.07;;
71152;SDS011;58822;51.438;5.436;2022-07-12T10:48:05;4.55;;;3.00;;
71152;SDS011;58822;51.438;5.436;2022-07-12T10:53:27;9.55;;;3.92;;
71152;SDS011;58822;51.438;5.436;2022-07-12T11:03:43;7.22;;;3.60;;
71152;SDS011;58822;51.438;5.436;2022-07-12T11:06:19;8.00;;;3.20;;
71152;SDS011;58822;51.438;5.436;2022-07-12T11:11:16;10.02;;;5.05;;
71152;SDS011;58822;51.438;5.436;2022-07-12T11:13:42;4.38;;;2.67;;
71152;SDS011;58822;51.438;5.436;2022-07-12T11:16:08;10.18;;;2.50;;
71152;SDS011;58822;51.438;5.436;2022-07-12T11:18:34;8.65;;;2.45;;
71152;SDS011;58822;51.438;5.436;2022-07-12T11:21:01;9.65;;;2.20;;
71152;SDS011;58822;51.438;5.436;2022-07-12T11:23:28;14.15;;;2.55;;
71152;SDS011;58822;51.438;5.436;2022-07-12T11:26:00;9.30;;;1.83;;
71152;SDS011;58822;51.438;5.436;2022-07-12T11:28:27;6.93;;;2.15;;
71152;SDS011;58822;51.438;5.436;2022-07-12T11:31:00;10.60;;;2.03;;
71152;SDS011;58822;51.438;5.436;2022-07-12T11:33:29;5.00;;;2.47;;
71152;SDS011;58822;51.438;5.436;2022-07-12T11:36:00;6.85;;;2.58;;
71152;SDS011;58822;51.438;5.436;2022-07-12T11:38:37;3.72;;;2.30;;
71152;SDS011;58822;51.438;5.436;2022-07-12T11:41:06;10.90;;;3.33;;
71152;SDS011;58822;51.438;5.436;2022-07-12T11:43:35;5.28;;;2.30;;
71152;SDS011;58822;51.438;5.436;2022-07-12T11:46:03;7.47;;;2.50;;
71152;SDS011;58822;51.438;5.436;2022-07-12T11:48:30;6.43;;;2.30;;
71152;SDS011;58822;51.438;5.436;2022-07-12T11:51:02;3.92;;;2.30;;
71152;SDS011;58822;51.438;5.436;2022-07-12T11:53:32;2.72;;;2.00;;
71152;SDS011;58822;51.438;5.436;2022-07-12T11:55:59;5.88;;;2.63;;
71152;SDS011;58822;51.438;5.436;2022-07-12T11:58:27;6.60;;;2.47;;
71152;SDS011;58822;51.438;5.436;2022-07-12T12:00:54;4.37;;;2.33;;
71152;SDS011;58822;51.438;5.436;2022-07-12T12:03:21;3.70;;;2.60;;
71152;SDS011;58822;51.438;5.436;2022-07-12T12:05:48;4.95;;;2.55;;
71152;SDS011;58822;51.438;5.436;2022-07-12T12:08:18;5.60;;;2.30;;
71152;SDS011;58822;51.438;5.436;2022-07-12T12:10:54;4.25;;;2.00;;
71152;SDS011;58822;51.438;5.436;2022-07-12T12:13:28;7.93;;;2.58;;
71152;SDS011;58822;51.438;5.436;2022-07-12T12:15:55;4.68;;;2.42;;
71152;SDS011;58822;51.438;5.436;2022-07-12T12:18:34;6.95;;;2.45;;
71152;SDS011;58822;51.438;5.436;2022-07-12T12:21:02;3.55;;;2.30;;
71152;SDS011;58822;51.438;5.436;2022-07-12T12:23:32;3.95;;;2.40;;
71152;SDS011;58822;51.438;5.436;2022-07-12T12:26:08;11.25;;;2.60;;
71152;SDS011;58822;51.438;5.436;2022-07-12T12:28:47;4.57;;;2.05;;
71152;SDS011;58822;51.438;5.436;2022-07-12T12:31:14;2.97;;;1.75;;
71152;SDS011;58822;51.438;5.436;2022-07-12T12:33:44;2.88;;;1.60;;
71152;SDS011;58822;51.438;5.436;2022-07-12T12:36:17;5.10;;;1.90;;
71152;SDS011;58822;51.438;5.436;2022-07-12T12:38:54;3.70;;;1.92;;
71152;SDS011;58822;51.438;5.436;2022-07-12T12:44:00;2.83;;;2.00;;
71152;SDS011;58822;51.438;5.436;2022-07-12T12:49:16;7.95;;;2.10;;
71152;SDS011;58822;51.438;5.436;2022-07-12T12:51:51;10.18;;;2.40;;
71152;SDS011;58822;51.438;5.436;2022-07-12T12:57:15;2.13;;;1.85;;
71152;SDS011;58822;51.438;5.436;2022-07-12T12:59:41;5.32;;;2.20;;
71152;SDS011;58822;51.438;5.436;2022-07-12T13:02:07;9.02;;;2.70;;
71152;SDS011;58822;51.438;5.436;2022-07-12T13:04:33;6.18;;;2.22;;
71152;SDS011;58822;51.438;5.436;2022-07-12T13:07:00;2.20;;;2.00;;
71152;SDS011;58822;51.438;5.436;2022-07-12T13:09:26;4.75;;;2.28;;
71152;SDS011;58822;51.438;5.436;2022-07-12T13:11:52;3.30;;;1.90;;
71152;SDS011;58822;51.438;5.436;2022-07-12T13:14:18;5.07;;;2.15;;
71152;SDS011;58822;51.438;5.436;2022-07-12T13:16:43;4.13;;;2.30;;
71152;SDS011;58822;51.438;5.436;2022-07-12T13:19:09;4.72;;;2.15;;
71152;SDS011;58822;51.438;5.436;2022-07-12T13:21:34;4.97;;;2.33;;
71152;SDS011;58822;51.438;5.436;2022-07-12T13:24:00;4.18;;;2.03;;
71152;SDS011;58822;51.438;5.436;2022-07-12T13:26:26;4.40;;;2.35;;
71152;SDS011;58822;51.438;5.436;2022-07-12T13:28:52;5.53;;;2.35;;
71152;SDS011;58822;51.438;5.436;2022-07-12T13:31:19;5.37;;;2.30;;
71152;SDS011;58822;51.438;5.436;2022-07-12T13:33:44;6.07;;;2.50;;
71152;SDS011;58822;51.438;5.436;2022-07-12T13:36:10;5.82;;;2.20;;
71152;SDS011;58822;51.438;5.436;2022-07-12T13:38:35;4.90;;;2.33;;
71152;SDS011;58822;51.438;5.436;2022-07-12T13:41:01;3.40;;;2.17;;
71152;SDS011;58822;51.438;5.436;2022-07-12T13:43:26;9.23;;;2.40;;
71152;SDS011;58822;51.438;5.436;2022-07-12T13:45:52;4.88;;;2.53;;
71152;SDS011;58822;51.438;5.436;2022-07-12T13:48:17;9.07;;;2.53;;
71152;SDS011;58822;51.438;5.436;2022-07-12T13:50:51;5.03;;;2.40;;
71152;SDS011;58822;51.438;5.436;2022-07-12T13:53:17;3.85;;;2.20;;
71152;SDS011;58822;51.438;5.436;2022-07-12T13:55:42;6.75;;;2.38;;
71152;SDS011;58822;51.438;5.436;2022-07-12T13:58:12;3.15;;;2.35;;
71152;SDS011;58822;51.438;5.436;2022-07-12T14:00:39;7.95;;;2.90;;
71152;SDS011;58822;51.438;5.436;2022-07-12T14:03:05;5.43;;;2.90;;
71152;SDS011;58822;51.438;5.436;2022-07-12T14:05:31;4.95;;;3.03;;
71152;SDS011;58822;51.438;5.436;2022-07-12T14:07:56;7.45;;;3.05;;
71152;SDS011;58822;51.438;5.436;2022-07-12T14:10:22;9.23;;;2.80;;
71152;SDS011;58822;51.438;5.436;2022-07-12T14:12:47;7.85;;;3.03;;
71152;SDS011;58822;51.438;5.436;2022-07-12T14:15:13;6.40;;;2.72;;
71152;SDS011;58822;51.438;5.436;2022-07-12T14:20:05;4.85;;;3.30;;
71152;SDS011;58822;51.438;5.436;2022-07-12T14:22:37;5.13;;;2.92;;
71152;SDS011;58822;51.438;5.436;2022-07-12T14:25:03;4.78;;;2.72;;
71152;SDS011;58822;51.438;5.436;2022-07-12T14:27:33;11.57;;;3.10;;
71152;SDS011;58822;51.438;5.436;2022-07-12T14:29:58;8.43;;;3.10;;
71152;SDS011;58822;51.438;5.436;2022-07-12T14:32:24;6.57;;;2.70;;
71152;SDS011;58822;51.438;5.436;2022-07-12T14:34:50;9.52;;;3.10;;
71152;SDS011;58822;51.438;5.436;2022-07-12T14:37:15;10.90;;;3.05;;
71152;SDS011;58822;51.438;5.436;2022-07-12T14:39:41;5.28;;;3.20;;
71152;SDS011;58822;51.438;5.436;2022-07-12T14:42:07;9.43;;;2.90;;
71152;SDS011;58822;51.438;5.436;2022-07-12T14:44:33;6.60;;;2.95;;
71152;SDS011;58822;51.438;5.436;2022-07-12T14:47:05;5.40;;;2.60;;
71152;SDS011;58822;51.438;5.436;2022-07-12T14:49:30;7.95;;;2.80;;
71152;SDS011;58822;51.438;5.436;2022-07-12T14:51:56;8.20;;;2.80;;
71152;SDS011;58822;51.438;5.436;2022-07-12T14:54:22;6.95;;;2.60;;
71152;SDS011;58822;51.438;5.436;2022-07-12T14:56:47;6.15;;;2.58;;
71152;SDS011;58822;51.438;5.436;2022-07-12T14:59:13;8.52;;;2.90;;
71152;SDS011;58822;51.438;5.436;2022-07-12T15:01:38;6.53;;;2.60;;
71152;SDS011;58822;51.438;5.436;2022-07-12T15:04:42;3.80;;;2.60;;
71152;SDS011;58822;51.438;5.436;2022-07-12T15:07:15;4.30;;;2.60;;
71152;SDS011;58822;51.438;5.436;2022-07-12T15:09:40;3.80;;;2.40;;
71152;SDS011;58822;51.438;5.436;2022-07-12T15:12:06;6.25;;;2.80;;
71152;SDS011;58822;51.438;5.436;2022-07-12T15:14:31;4.80;;;2.70;;
71152;SDS011;58822;51.438;5.436;2022-07-12T15:16:57;5.22;;;2.72;;
71152;SDS011;58822;51.438;5.436;2022-07-12T15:19:22;4.30;;;2.63;;
71152;SDS011;58822;51.438;5.436;2022-07-12T15:21:47;6.32;;;2.42;;
71152;SDS011;58822;51.438;5.436;2022-07-12T15:24:13;4.70;;;2.60;;
71152;SDS011;58822;51.438;5.436;2022-07-12T15:26:38;4.60;;;2.50;;
71152;SDS011;58822;51.438;5.436;2022-07-12T15:29:04;3.83;;;2.45;;
71152;SDS011;58822;51.438;5.436;2022-07-12T15:31:30;4.07;;;2.42;;
71152;SDS011;58822;51.438;5.436;2022-07-12T15:33:56;5.70;;;2.50;;
71152;SDS011;58822;51.438;5.436;2022-07-12T15:36:22;4.70;;;2.50;;
71152;SDS011;58822;51.438;5.436;2022-07-12T15:38:48;4.35;;;2.50;;
71152;SDS011;58822;51.438;5.436;2022-07-12T15:41:13;3.97;;;2.40;;